createdAt,value
2018-01-18T00:01:07.422Z,3.30
2018-01-18T00:03:37.288Z,4.50
2018-01-18T00:06:07.173Z,3.63
2018-01-18T00:08:37.109Z,5.10
2018-01-18T00:11:06.993Z,4.47
2018-01-18T00:13:36.864Z,5.60
2018-01-18T00:16:06.877Z,5.40
2018-01-18T00:18:36.812Z,5.90
2018-01-18T00:21:06.691Z,5.90
2018-01-18T00:23:36.562Z,6.73
2018-01-18T00:26:06.408Z,4.90
2018-01-18T00:28:36.293Z,7.00
2018-01-18T00:31:06.155Z,5.47
2018-01-18T00:33:36.026Z,6.57
2018-01-18T00:36:05.901Z,7.40
2018-01-18T00:38:35.811Z,6.73
2018-01-18T00:41:05.712Z,7.00
2018-01-18T00:43:35.582Z,6.63
2018-01-18T00:46:05.561Z,7.47
2018-01-18T00:48:35.486Z,6.60
2018-01-18T00:51:05.473Z,8.10
2018-01-18T00:53:35.317Z,8.17
2018-01-18T00:56:05.249Z,9.00
2018-01-18T00:58:35.163Z,7.70
2018-01-18T01:01:05.074Z,8.03
2018-01-18T01:03:34.941Z,9.90
2018-01-18T01:06:04.824Z,9.30
2018-01-18T01:08:34.696Z,9.73
2018-01-18T01:11:04.578Z,9.50
2018-01-18T01:13:34.566Z,9.17
2018-01-18T01:16:04.463Z,8.43
2018-01-18T01:18:34.341Z,8.63
2018-01-18T01:21:04.432Z,8.33
2018-01-18T01:23:34.429Z,8.80
2018-01-18T01:26:04.316Z,8.87
2018-01-18T01:28:34.201Z,7.40
2018-01-18T01:31:04.083Z,7.33
2018-01-18T01:33:34.028Z,8.60
2018-01-18T01:36:03.900Z,10.50
2018-01-18T01:38:33.776Z,10.43
2018-01-18T01:41:03.665Z,9.60
2018-01-18T01:43:33.635Z,10.67
2018-01-18T01:46:03.508Z,10.87
2018-01-18T01:48:39.293Z,11.27
2018-01-18T01:51:09.317Z,12.30
2018-01-18T01:53:39.185Z,12.07
2018-01-18T01:56:09.057Z,11.10
2018-01-18T01:58:39.044Z,13.20
2018-01-18T02:01:08.931Z,10.60
2018-01-18T02:03:38.790Z,11.13
2018-01-18T02:06:08.813Z,12.90
2018-01-18T02:08:38.723Z,12.77
2018-01-18T02:11:08.614Z,13.30
2018-01-18T02:13:38.507Z,12.23
2018-01-18T02:16:08.938Z,6.23
2018-01-18T02:18:38.885Z,11.63
2018-01-18T02:21:08.873Z,12.57
2018-01-18T02:23:38.845Z,11.57
2018-01-18T02:26:08.890Z,10.57
2018-01-18T02:28:38.850Z,10.47
2018-01-18T02:31:08.733Z,6.40
2018-01-18T02:33:38.592Z,8.87
2018-01-18T02:36:08.567Z,10.23
2018-01-18T02:38:38.510Z,8.80
2018-01-18T02:41:08.392Z,8.57
2018-01-18T02:43:38.340Z,9.33
2018-01-18T02:46:08.315Z,11.53
2018-01-18T02:48:38.188Z,7.93
2018-01-18T02:51:08.032Z,8.80
2018-01-18T02:53:37.916Z,8.47
2018-01-18T02:56:07.789Z,8.20
2018-01-18T02:58:37.674Z,9.40
2018-01-18T03:01:07.628Z,7.80
2018-01-18T03:03:37.489Z,7.10
2018-01-18T03:06:07.411Z,7.63
2018-01-18T03:08:37.479Z,7.47
2018-01-18T03:11:07.356Z,7.57
2018-01-18T03:13:37.218Z,7.40
2018-01-18T03:16:07.186Z,7.37
2018-01-18T03:18:37.088Z,6.50
2018-01-18T03:21:06.955Z,8.20
2018-01-18T03:23:36.933Z,7.60
2018-01-18T03:26:06.779Z,7.03
2018-01-18T03:28:36.657Z,8.40
2018-01-18T03:31:06.524Z,5.57
2018-01-18T03:33:36.419Z,7.13
2018-01-18T03:36:06.295Z,6.80
2018-01-18T03:38:36.219Z,7.17
2018-01-18T03:41:06.110Z,6.63
2018-01-18T03:43:36.009Z,6.13
2018-01-18T03:46:05.856Z,9.17
2018-01-18T03:48:35.812Z,6.93
2018-01-18T03:51:05.933Z,6.47
2018-01-18T03:53:35.784Z,5.57
2018-01-18T03:56:05.669Z,6.67
2018-01-18T03:58:35.543Z,5.73
2018-01-18T04:01:05.415Z,5.57
2018-01-18T04:03:35.285Z,5.83
2018-01-18T04:06:05.189Z,7.40
2018-01-18T04:08:35.052Z,6.53
2018-01-18T04:11:04.917Z,8.00
2018-01-18T04:13:34.761Z,6.00
2018-01-18T04:16:04.641Z,5.43
2018-01-18T04:18:34.510Z,6.83
2018-01-18T04:21:04.459Z,6.20
2018-01-18T04:23:34.428Z,6.13
2018-01-18T04:26:04.297Z,7.33
2018-01-18T04:28:34.177Z,5.87
2018-01-18T04:31:04.124Z,6.47
2018-01-18T04:33:34.004Z,6.30
2018-01-18T04:36:03.945Z,6.10
2018-01-18T04:38:33.868Z,6.83
2018-01-18T04:41:03.894Z,7.50
2018-01-18T04:43:33.790Z,6.67
2018-01-18T04:46:03.715Z,6.80
2018-01-18T04:48:33.567Z,5.77
2018-01-18T04:51:03.449Z,7.27
2018-01-18T04:53:33.355Z,7.03
2018-01-18T04:56:03.252Z,8.30
2018-01-18T04:58:33.118Z,7.30
2018-01-18T05:01:03.002Z,6.80
2018-01-18T05:03:32.829Z,8.57
2018-01-18T05:06:02.760Z,7.50
2018-01-18T05:08:32.675Z,8.20
2018-01-18T05:11:02.533Z,8.43
2018-01-18T05:13:32.487Z,7.80
2018-01-18T05:16:02.353Z,9.10
2018-01-18T05:18:32.225Z,8.20
2018-01-18T05:21:02.168Z,9.10
2018-01-18T05:23:32.032Z,8.37
2018-01-18T05:26:01.914Z,7.50
2018-01-18T05:28:31.821Z,8.63
2018-01-18T05:31:01.753Z,7.03
2018-01-18T05:33:31.603Z,8.23
2018-01-18T05:36:01.485Z,8.23
2018-01-18T05:38:31.355Z,15.07
2018-01-18T05:41:01.237Z,8.50
2018-01-18T05:43:31.103Z,8.57
2018-01-18T05:46:01.044Z,9.33
2018-01-18T05:48:30.935Z,9.57
2018-01-18T05:51:00.804Z,9.20
2018-01-18T05:53:30.755Z,8.50
2018-01-18T05:56:00.605Z,8.40
2018-01-18T05:58:30.512Z,10.10
2018-01-18T06:01:02.130Z,9.73
2018-01-18T06:03:32.027Z,10.13
2018-01-18T06:06:02.436Z,9.20
2018-01-18T06:08:32.767Z,10.10
2018-01-18T06:11:02.643Z,9.80
2018-01-18T06:13:32.556Z,11.30
2018-01-18T06:16:02.422Z,11.20
2018-01-18T06:18:32.307Z,11.23
2018-01-18T06:21:02.175Z,12.37
2018-01-18T06:23:32.207Z,11.60
2018-01-18T06:26:02.057Z,11.33
2018-01-18T06:28:31.947Z,13.43
2018-01-18T06:31:01.856Z,10.77
2018-01-18T06:33:31.725Z,11.40
2018-01-18T06:36:01.830Z,12.27
2018-01-18T06:38:31.753Z,13.50
2018-01-18T06:41:01.686Z,13.57
2018-01-18T06:43:32.567Z,13.70
2018-01-18T06:46:07.153Z,13.40
2018-01-18T06:48:37.177Z,12.50
2018-01-18T06:51:07.056Z,12.80
2018-01-18T06:53:36.896Z,14.00
2018-01-18T06:56:06.845Z,12.83
2018-01-18T06:58:36.789Z,12.87
2018-01-18T07:01:06.637Z,11.67
2018-01-18T07:03:36.610Z,10.40
2018-01-18T07:06:06.526Z,11.70
2018-01-18T07:08:36.385Z,10.97
2018-01-18T07:11:06.273Z,10.80
2018-01-18T07:13:36.161Z,10.50
2018-01-18T07:16:06.031Z,12.60
2018-01-18T07:18:35.927Z,9.23
2018-01-18T07:21:05.840Z,10.60
2018-01-18T07:23:35.680Z,11.27
2018-01-18T07:26:05.593Z,10.60
2018-01-18T07:28:35.476Z,9.87
2018-01-18T07:31:05.347Z,10.33
2018-01-18T07:33:35.261Z,12.13
2018-01-18T07:36:05.139Z,9.10
2018-01-18T07:38:35.094Z,10.23
2018-01-18T07:41:04.985Z,9.07
2018-01-18T07:43:34.901Z,9.53
2018-01-18T07:46:04.797Z,9.03
2018-01-18T07:48:34.714Z,8.07
2018-01-18T07:51:04.583Z,9.03
2018-01-18T07:53:34.566Z,8.40
2018-01-18T07:56:04.519Z,6.67
2018-01-18T07:58:34.402Z,7.10
2018-01-18T08:01:04.301Z,6.83
2018-01-18T08:03:39.921Z,8.80
2018-01-18T08:06:10.323Z,6.77
2018-01-18T08:08:40.260Z,6.93
2018-01-18T08:11:10.186Z,7.33
2018-01-18T08:13:40.128Z,7.83
2018-01-18T08:16:10.022Z,5.93
2018-01-18T08:18:40.031Z,5.97
2018-01-18T08:21:09.914Z,6.80
2018-01-18T08:23:39.775Z,7.20
2018-01-18T08:26:09.745Z,6.17
2018-01-18T08:28:39.603Z,6.23
2018-01-18T08:31:09.495Z,5.13
2018-01-18T08:33:39.794Z,6.70
2018-01-18T08:36:09.742Z,5.20
2018-01-18T08:38:39.656Z,4.90
2018-01-18T08:41:09.577Z,5.37
2018-01-18T08:43:39.618Z,4.90
2018-01-18T08:46:11.108Z,5.80
2018-01-18T08:48:41.173Z,4.97
2018-01-18T08:51:11.412Z,3.53
2018-01-18T08:53:41.414Z,3.53
2018-01-18T08:56:11.659Z,3.40
2018-01-18T08:58:41.604Z,3.07
2018-01-18T09:01:11.509Z,2.90
2018-01-18T09:03:41.478Z,3.40
2018-01-18T09:06:11.365Z,2.13
2018-01-18T09:08:41.211Z,2.43
2018-01-18T09:11:11.173Z,3.30
2018-01-18T09:13:41.091Z,2.60
2018-01-18T09:16:10.948Z,1.93
2018-01-18T09:18:40.918Z,1.47
2018-01-18T09:21:10.806Z,2.97
2018-01-18T09:23:42.687Z,1.87
2018-01-18T09:26:13.619Z,3.60
2018-01-18T09:28:43.619Z,2.17
2018-01-18T09:31:13.594Z,1.80
2018-01-18T09:33:43.514Z,2.40
2018-01-18T09:36:13.450Z,1.03
2018-01-18T09:38:43.544Z,1.77
2018-01-18T09:41:13.572Z,1.70
2018-01-18T09:43:43.487Z,1.60
2018-01-18T09:46:13.384Z,1.20
2018-01-18T09:48:43.388Z,1.30
2018-01-18T09:51:13.308Z,1.40
2018-01-18T09:53:43.301Z,0.80
2018-01-18T09:56:13.154Z,1.00
2018-01-18T09:58:43.084Z,1.00
2018-01-18T10:01:12.980Z,1.00
2018-01-18T10:03:42.910Z,1.10
2018-01-18T10:06:12.796Z,0.90
2018-01-18T10:08:42.745Z,1.00
2018-01-18T10:11:12.824Z,1.30
2018-01-18T10:13:42.706Z,1.00
2018-01-18T10:16:12.685Z,1.03
2018-01-18T10:18:42.719Z,0.90
2018-01-18T10:21:12.647Z,0.90
2018-01-18T10:23:42.673Z,0.80
2018-01-18T10:26:12.571Z,0.63
2018-01-18T10:28:42.458Z,1.37
2018-01-18T10:31:12.392Z,0.80
2018-01-18T10:33:42.349Z,0.87
2018-01-18T10:36:12.334Z,0.80
2018-01-18T10:38:42.244Z,1.00
2018-01-18T10:41:12.167Z,0.80
2018-01-18T10:43:42.078Z,0.80
2018-01-18T10:46:12.079Z,1.23
2018-01-18T10:48:42.020Z,1.00
2018-01-18T10:51:11.880Z,0.80
2018-01-18T10:53:41.741Z,0.70
2018-01-18T10:56:11.621Z,1.70
2018-01-18T10:58:41.561Z,0.70
2018-01-18T11:01:11.426Z,0.50
2018-01-18T11:03:41.367Z,0.57
2018-01-18T11:06:11.269Z,0.70
2018-01-18T11:08:41.170Z,0.60
2018-01-18T11:11:11.064Z,0.87
2018-01-18T11:13:40.949Z,0.70
2018-01-18T11:16:10.920Z,1.00
2018-01-18T11:18:40.913Z,0.87
2018-01-18T11:21:10.941Z,0.70
2018-01-18T11:23:40.786Z,1.10
2018-01-18T11:26:10.698Z,0.70
2018-01-18T11:28:40.599Z,0.97
2018-01-18T11:31:10.502Z,1.47
2018-01-18T11:33:40.406Z,1.40
2018-01-18T11:36:10.302Z,2.07
2018-01-18T11:41:48.789Z,2.00
2018-01-18T11:44:18.694Z,1.87
2018-01-18T11:46:48.669Z,1.67
2018-01-18T11:49:18.554Z,1.47
2018-01-18T11:51:48.522Z,1.50
2018-01-18T11:54:18.364Z,1.57
2018-01-18T11:56:48.440Z,1.37
2018-01-18T11:59:18.314Z,1.10
2018-01-18T12:01:48.287Z,1.30
2018-01-18T12:04:18.202Z,6.33
2018-01-18T12:06:48.099Z,1.50
2018-01-18T12:09:17.972Z,1.47
2018-01-18T12:11:47.992Z,1.00
2018-01-18T12:14:17.848Z,1.50
2018-01-18T12:16:47.765Z,1.40
2018-01-18T12:19:17.767Z,1.27
2018-01-18T12:21:47.632Z,1.70
2018-01-18T12:24:17.696Z,1.80
2018-01-18T12:26:47.613Z,2.70
2018-01-18T12:29:17.495Z,1.80
2018-01-18T12:31:47.370Z,2.40
2018-01-18T12:34:17.307Z,1.70
2018-01-18T12:36:47.186Z,1.70
2018-01-18T12:39:17.057Z,2.00
2018-01-18T12:41:47.040Z,2.30
2018-01-18T12:44:16.901Z,2.70
2018-01-18T12:46:46.907Z,2.07
2018-01-18T12:49:16.774Z,2.17
2018-01-18T12:51:46.690Z,2.70
2018-01-18T12:54:17.076Z,2.30
2018-01-18T12:56:47.270Z,1.80
2018-01-18T12:59:17.310Z,2.33
2018-01-18T13:01:47.306Z,3.17
2018-01-18T13:04:17.607Z,4.20
2018-01-18T13:06:47.598Z,2.60
2018-01-18T13:09:17.638Z,2.80
2018-01-18T13:11:48.195Z,2.77
2018-01-18T13:14:18.988Z,2.93
2018-01-18T13:16:49.359Z,2.63
2018-01-18T13:19:19.624Z,1.90
2018-01-18T13:21:49.690Z,2.00
2018-01-18T13:24:19.736Z,2.90
2018-01-18T13:26:49.680Z,2.40
2018-01-18T13:29:19.817Z,1.67
2018-01-18T13:31:50.237Z,1.77
2018-01-18T13:34:20.337Z,1.97
2018-01-18T13:36:50.321Z,1.23
2018-01-18T13:39:20.611Z,0.80
2018-01-18T13:41:50.661Z,0.73
2018-01-18T13:44:20.874Z,1.30
2018-01-18T13:46:50.798Z,0.70
2018-01-18T13:49:20.724Z,0.80
2018-01-18T13:51:50.850Z,1.03
2018-01-18T14:46:55.526Z,1.10
2018-01-18T14:49:25.441Z,0.90
2018-01-18T14:51:55.846Z,1.20
2018-01-18T14:57:09.656Z,1.90
2018-01-18T14:59:39.531Z,2.30
2018-01-18T15:02:09.438Z,2.03
2018-01-18T15:04:39.552Z,2.10
2018-01-18T15:07:09.696Z,1.90
2018-01-18T15:09:39.544Z,2.87
2018-01-18T15:12:09.458Z,2.47
2018-01-18T15:14:39.284Z,2.50
2018-01-18T15:17:24.846Z,1.70
2018-01-18T15:19:54.750Z,2.50
2018-01-18T15:22:24.679Z,2.50
2018-01-18T15:24:54.536Z,2.10
2018-01-18T15:27:24.452Z,2.00
2018-01-18T15:29:54.306Z,2.67
2018-01-18T15:35:32.267Z,1.90
2018-01-18T15:38:02.231Z,2.43
2018-01-18T15:40:32.574Z,2.90
2018-01-18T15:43:02.466Z,2.03
2018-01-18T15:45:34.045Z,4.13
2018-01-18T15:54:04.582Z,3.73
2018-01-18T15:56:34.447Z,3.33
2018-01-18T15:59:04.489Z,4.00
2018-01-18T16:01:34.321Z,4.30
2018-01-18T16:04:04.184Z,5.30
2018-01-18T16:06:34.058Z,6.47
2018-01-18T16:09:03.946Z,6.10
2018-01-18T16:11:33.822Z,5.40
2018-01-18T16:14:03.702Z,5.33
2018-01-18T16:16:34.157Z,5.50
2018-01-18T16:19:04.018Z,4.10
2018-01-18T16:21:33.946Z,5.13
2018-01-18T16:24:03.769Z,5.00
2018-01-18T16:26:33.804Z,6.00
2018-01-18T16:29:03.717Z,5.67
2018-01-18T16:31:33.663Z,6.00
2018-01-18T16:34:03.530Z,7.80
2018-01-18T16:36:33.391Z,8.73
2018-01-18T16:39:03.196Z,7.87
2018-01-18T16:41:33.054Z,7.00
2018-01-18T16:44:03.135Z,8.10
2018-01-18T16:46:33.014Z,8.00
2018-01-18T16:49:02.973Z,8.07
2018-01-18T16:51:33.084Z,8.50
2018-01-18T16:54:02.940Z,6.17
2018-01-18T16:56:32.778Z,9.23
2018-01-18T16:59:02.879Z,9.47
2018-01-18T17:01:32.700Z,6.27
2018-01-18T17:04:02.580Z,8.60
2018-01-18T17:06:32.404Z,7.70
2018-01-18T17:09:02.298Z,9.77
2018-01-18T17:11:32.130Z,9.13
2018-01-18T17:14:01.983Z,8.67
2018-01-18T17:16:31.797Z,8.50
2018-01-18T17:19:01.638Z,8.00
2018-01-18T17:21:31.534Z,9.07
2018-01-18T17:24:01.355Z,8.80
2018-01-18T17:26:31.228Z,8.60
2018-01-18T17:29:01.060Z,9.03
2018-01-18T17:31:30.886Z,9.93
2018-01-18T17:34:00.949Z,9.93
2018-01-18T17:36:30.808Z,10.20
2018-01-18T17:39:00.941Z,12.33
2018-01-18T17:41:30.832Z,9.30
2018-01-18T17:44:00.740Z,12.57
2018-01-18T17:46:30.624Z,9.80
2018-01-18T17:49:00.630Z,10.27
2018-01-18T17:51:30.525Z,11.20
2018-01-18T17:54:00.477Z,12.80
2018-01-18T17:56:30.381Z,10.70
2018-01-18T17:59:00.242Z,12.90
2018-01-18T18:01:30.068Z,13.57
2018-01-18T18:03:59.928Z,12.27
2018-01-18T18:06:29.790Z,11.37
2018-01-18T18:08:59.669Z,10.97
2018-01-18T18:11:29.612Z,13.60
2018-01-18T18:13:59.475Z,12.60
2018-01-18T18:16:29.464Z,10.33
2018-01-18T18:18:59.304Z,13.30
2018-01-18T18:21:29.257Z,13.10
2018-01-18T18:24:00.165Z,13.40
2018-01-18T18:26:30.226Z,13.17
2018-01-18T18:29:00.578Z,14.67
2018-01-18T18:31:30.430Z,15.00
2018-01-18T18:34:00.480Z,9.73
2018-01-18T18:36:30.334Z,15.13
2018-01-18T18:39:00.197Z,17.00
2018-01-18T18:41:30.033Z,16.07
2018-01-18T18:43:59.861Z,16.23
2018-01-18T18:46:30.187Z,16.63
2018-01-18T18:49:01.032Z,16.20
2018-01-18T18:51:30.952Z,16.70
2018-01-18T18:54:00.846Z,18.17
2018-01-18T18:56:30.734Z,18.10
2018-01-18T18:59:00.770Z,20.97
2018-01-18T19:01:31.042Z,18.77
2018-01-18T19:04:00.944Z,18.57
2018-01-18T19:06:30.864Z,19.13
2018-01-18T19:09:03.062Z,20.20
2018-01-18T19:11:35.561Z,19.70
2018-01-18T19:14:05.419Z,17.27
2018-01-18T19:16:35.567Z,20.00
2018-01-18T19:19:05.378Z,20.67
2018-01-18T19:21:35.355Z,20.30
2018-01-18T19:24:05.230Z,20.30
2018-01-18T19:26:35.167Z,21.37
2018-01-18T19:29:05.068Z,19.57
2018-01-18T19:31:34.926Z,22.00
2018-01-18T19:34:04.944Z,20.23
2018-01-18T19:36:34.849Z,20.33
2018-01-18T19:39:04.806Z,19.90
2018-01-18T19:41:34.732Z,19.40
2018-01-18T19:44:04.607Z,19.03
2018-01-18T19:46:34.484Z,19.37
2018-01-18T19:49:04.424Z,19.70
2018-01-18T19:51:34.339Z,21.93
2018-01-18T19:54:04.252Z,17.27
2018-01-18T19:56:34.238Z,17.90
2018-01-18T19:59:04.199Z,18.50
2018-01-18T20:01:34.217Z,17.10
2018-01-18T20:04:04.189Z,14.13
2018-01-18T20:06:35.253Z,13.17
2018-01-18T20:09:05.168Z,12.57
2018-01-18T20:11:35.079Z,12.20
2018-01-18T20:14:04.984Z,9.83
2018-01-18T20:16:34.860Z,10.97
2018-01-18T20:19:04.856Z,10.47
2018-01-18T20:21:34.817Z,11.13
2018-01-18T20:24:04.747Z,10.57
2018-01-18T20:26:34.766Z,10.47
2018-01-18T20:29:04.784Z,10.37
2018-01-18T20:31:34.761Z,9.57
2018-01-18T20:34:04.941Z,8.47
2018-01-18T20:36:34.893Z,9.30
2018-01-18T20:39:05.187Z,9.00
2018-01-18T20:41:35.075Z,9.70
2018-01-18T20:44:05.256Z,8.73
2018-01-18T20:46:35.128Z,9.70
2018-01-18T20:49:05.132Z,9.27
2018-01-18T20:51:35.075Z,9.23
2018-01-18T20:54:04.948Z,10.00
2018-01-18T20:56:34.866Z,10.87
2018-01-18T20:59:05.262Z,10.80
2018-01-18T21:01:35.219Z,12.40
2018-01-18T21:04:05.091Z,10.87
2018-01-18T21:06:35.179Z,11.00
2018-01-18T21:09:05.078Z,12.40
2018-01-18T21:11:34.971Z,10.07
2018-01-18T21:14:04.842Z,10.50
2018-01-18T21:16:34.769Z,10.77
2018-01-18T21:19:04.796Z,10.47
2018-01-18T21:21:34.800Z,11.80
2018-01-18T21:24:04.699Z,12.00
2018-01-18T21:26:34.680Z,12.30
2018-01-18T21:29:04.530Z,11.43
2018-01-18T21:31:34.472Z,11.40
2018-01-18T21:34:04.493Z,11.37
2018-01-18T21:36:34.721Z,11.37
2018-01-18T21:39:04.570Z,10.63
2018-01-18T21:41:34.461Z,11.83
2018-01-18T21:44:04.363Z,10.07
2018-01-18T22:31:14.578Z,10.67
2018-01-18T22:33:44.432Z,9.30
2018-01-18T22:36:14.363Z,9.60
2018-01-18T22:38:44.269Z,9.30
2018-01-18T22:41:14.190Z,8.80
2018-01-18T22:43:44.036Z,9.60
2018-01-18T22:46:13.971Z,9.10
2018-01-18T22:48:43.790Z,9.30
2018-01-18T22:51:13.669Z,9.70
2018-01-18T22:53:43.512Z,9.90
2018-01-18T22:56:13.391Z,10.50
2018-01-18T22:58:43.243Z,11.13
2018-01-18T23:01:13.170Z,11.10
2018-01-18T23:03:43.129Z,10.33
2018-01-18T23:06:12.979Z,11.00
2018-01-18T23:08:44.646Z,11.70
2018-01-18T23:11:14.649Z,11.40
2018-01-18T23:13:44.676Z,12.57
2018-01-18T23:16:14.880Z,10.97
2018-01-18T23:18:44.810Z,10.50
2018-01-18T23:21:14.753Z,12.00
2018-01-18T23:23:44.681Z,11.50
2018-01-18T23:26:14.583Z,11.63
2018-01-18T23:28:44.472Z,12.07
2018-01-18T23:31:14.348Z,9.70
2018-01-18T23:33:44.533Z,12.00
2018-01-18T23:36:14.420Z,11.60
2018-01-18T23:38:44.616Z,11.53
2018-01-18T23:41:14.492Z,11.23
2018-01-18T23:43:44.385Z,12.83
2018-01-18T23:46:14.397Z,12.97
2018-01-18T23:48:44.378Z,13.27
2018-01-18T23:51:14.276Z,13.50
2018-01-18T23:53:44.161Z,12.80
2018-01-18T23:56:14.021Z,12.10
2018-01-18T23:58:43.918Z,13.90
